Time;durP1;ratioP1;P1;durP2;ratioP2;P2;SDS_P1;SDS_P2;PMS_P1;PMS_P2;Temp;Humidity;BMP_temperature;BMP_pressure;BME280_temperature;BME280_humidity;BME280_pressure;Samples;Min_cycle;Max_cycle;Signal;HPM_P1;HPM_P2
2022/11/15 00:01:45;;;;;;;1999.90;999.90;;;;;;;4.67;100.00;94505.53;4994337;28;20187;-65
2022/11/15 00:04:10;;;;;;;1999.90;999.90;;;;;;;4.64;100.00;94530.63;4994299;28;20200;-65
2022/11/15 00:06:35;;;;;;;1999.90;999.90;;;;;;;4.61;100.00;94547.63;4994848;28;20176;-69
2022/11/15 00:09:02;;;;;;;1999.90;999.90;;;;;;;4.58;100.00;94559.19;4994626;28;20274;-70
2022/11/15 00:11:27;;;;;;;1999.90;999.90;;;;;;;4.52;100.00;94582.38;4994690;28;20310;-70
2022/11/15 00:13:57;;;;;;;1999.90;999.90;;;;;;;4.48;100.00;94593.16;4994071;28;20195;-70
2022/11/15 00:16:22;;;;;;;1999.90;999.90;;;;;;;4.42;100.00;94602.84;4993749;28;20262;-70
2022/11/15 00:18:49;;;;;;;1999.90;999.90;;;;;;;4.43;100.00;94600.88;4995443;28;20231;-68
2022/11/15 00:21:15;;;;;;;1999.90;999.90;;;;;;;4.42;100.00;94610.16;4998360;28;20198;-69
2022/11/15 00:23:41;;;;;;;1999.90;999.90;;;;;;;4.37;100.00;94618.66;4998096;28;20187;-61
2022/11/15 00:26:07;;;;;;;1999.90;999.90;;;;;;;4.32;100.00;94619.00;4997924;28;20180;-62
2022/11/15 00:28:32;;;;;;;1999.90;999.90;;;;;;;4.27;100.00;94620.16;4998562;28;20183;-63
2022/11/15 00:31:03;;;;;;;1999.90;999.90;;;;;;;4.25;100.00;94629.78;4997897;28;20175;-62
2022/11/15 00:33:28;;;;;;;1999.90;999.90;;;;;;;4.19;100.00;94634.78;4997725;28;20638;-62
2022/11/15 00:35:58;;;;;;;1999.90;999.90;;;;;;;4.18;100.00;94616.28;4998578;28;20222;-63
2022/11/15 00:38:24;;;;;;;1999.90;999.90;;;;;;;4.15;100.00;94622.44;4998327;28;20195;-62
2022/11/15 00:40:49;;;;;;;1999.90;999.90;;;;;;;4.13;100.00;94630.16;4997902;28;20180;-60
2022/11/15 00:43:14;;;;;;;1999.90;999.90;;;;;;;4.05;100.00;94634.75;4997867;28;20176;-64
2022/11/15 00:45:40;;;;;;;1999.90;999.90;;;;;;;4.00;100.00;94626.25;4998108;28;20186;-63
2022/11/15 00:48:05;;;;;;;1999.90;999.90;;;;;;;3.96;100.00;94636.25;4998147;28;20249;-64
2022/11/15 00:50:30;;;;;;;1999.90;999.90;;;;;;;3.90;100.00;94632.38;4997810;28;20212;-65
2022/11/15 00:52:56;;;;;;;1999.90;999.90;;;;;;;3.85;100.00;94625.41;4997908;28;20180;-65
2022/11/15 00:55:21;;;;;;;1999.90;999.90;;;;;;;3.81;100.00;94623.81;4997649;28;20175;-64
2022/11/15 00:57:46;;;;;;;1999.90;999.90;;;;;;;3.77;100.00;94613.03;4997517;28;20204;-64
2022/11/15 01:00:12;;;;;;;1999.90;999.90;;;;;;;3.73;100.00;94600.66;4997530;28;20202;-69
2022/11/15 01:02:38;;;;;;;1999.90;999.90;;;;;;;3.69;100.00;94589.06;4997284;28;20184;-69
2022/11/15 01:05:04;;;;;;;1999.90;999.90;;;;;;;3.64;100.00;94581.34;4997280;28;20196;-68
2022/11/15 01:07:29;;;;;;;1999.90;999.90;;;;;;;3.61;100.00;94571.31;4997686;28;20191;-69
2022/11/15 01:09:54;;;;;;;1999.90;999.90;;;;;;;3.58;100.00;94561.25;4997443;28;20180;-70
2022/11/15 01:12:20;;;;;;;1999.90;999.90;;;;;;;3.54;100.00;94545.81;4997700;28;20176;-70
2022/11/15 01:14:45;;;;;;;1999.90;999.90;;;;;;;3.51;100.00;94533.09;4997558;28;20267;-69
2022/11/15 01:17:11;;;;;;;1999.90;999.90;;;;;;;3.51;100.00;94487.22;4996894;28;20587;-63
2022/11/15 01:19:36;;;;;;;1999.90;999.90;;;;;;;3.47;100.00;94461.38;4997641;28;20208;-60
2022/11/15 01:22:01;;;;;;;1999.90;999.90;;;;;;;3.48;100.00;94450.22;4997662;28;20240;-59
2022/11/15 01:24:27;;;;;;;1999.90;999.90;;;;;;;3.49;100.00;94427.47;4997018;28;20184;-59
2022/11/15 01:26:52;;;;;;;1999.90;999.90;;;;;;;3.54;100.00;94413.59;4997494;28;20172;-60
2022/11/15 01:29:17;;;;;;;1999.90;999.90;;;;;;;3.56;100.00;94399.72;4996935;28;20191;-59
2022/11/15 01:31:43;;;;;;;1999.90;999.90;;;;;;;3.58;100.00;94393.94;4997273;28;20178;-60
2022/11/15 01:34:08;;;;;;;1999.90;999.90;;;;;;;3.62;100.00;94389.31;4996765;28;20198;-59
2022/11/15 01:36:33;;;;;;;1999.90;999.90;;;;;;;3.61;100.00;94383.16;4996778;28;20212;-70
2022/11/15 01:38:59;;;;;;;1999.90;999.90;;;;;;;3.60;100.00;94375.44;4996795;28;20176;-61
2022/11/15 01:41:29;;;;;;;1999.90;999.90;;;;;;;3.60;100.00;94375.44;4996903;28;20190;-61
2022/11/15 01:43:57;;;;;;;1999.90;999.90;;;;;;;3.61;100.00;94368.91;4996569;28;20192;-62
2022/11/15 01:46:37;;;;;;;1999.90;999.90;;;;;;;3.62;100.00;94373.13;4996791;28;20248;-61
2022/11/15 01:49:11;;;;;;;1999.90;999.90;;;;;;;3.60;100.00;94370.06;4996284;28;20198;-61
2022/11/15 01:51:37;;;;;;;1999.90;999.90;;;;;;;3.60;100.00;94364.66;4997157;28;20172;-62
2022/11/15 01:54:08;;;;;;;1999.90;999.90;;;;;;;3.61;100.00;94371.59;4996496;28;20187;-60
2022/11/15 01:56:42;;;;;;;1999.90;999.90;;;;;;;3.57;100.00;94370.81;4996775;28;20200;-64
2022/11/15 01:59:08;;;;;;;1999.90;999.90;;;;;;;3.55;100.00;94373.91;4997053;28;20173;-65
2022/11/15 02:01:34;;;;;;;1999.90;999.90;;;;;;;3.53;100.00;94376.97;4996195;28;20187;-65
2022/11/15 02:04:07;;;;;;;1999.90;999.90;;;;;;;3.52;100.00;94377.34;4996223;28;20200;-65
2022/11/15 02:06:35;;;;;;;1999.90;999.90;;;;;;;3.49;100.00;94387.00;4996952;28;20176;-64
2022/11/15 02:09:01;;;;;;;1999.90;999.90;;;;;;;3.51;100.00;94390.06;4996118;28;20219;-65
2022/11/15 02:11:26;;;;;;;1999.90;999.90;;;;;;;3.51;100.00;94390.06;4995924;28;20183;-62
2022/11/15 02:13:52;;;;;;;1999.90;999.90;;;;;;;3.56;100.00;94407.06;4996113;28;20176;-61
2022/11/15 02:16:40;;;;;;;1999.90;999.90;;;;;;;3.51;100.00;94406.25;4996017;28;20306;-61
2022/11/15 02:19:05;;;;;;;1999.90;999.90;;;;;;;3.49;100.00;94432.88;4995612;28;20293;-60
2022/11/15 02:21:41;;;;;;;1999.90;999.90;;;;;;;3.45;100.00;94450.97;4996474;28;20218;-60
2022/11/15 02:24:40;;;;;;;1999.90;999.90;;;;;;;3.37;100.00;94476.38;4996547;28;20180;-59
2022/11/15 02:27:25;;;;;;;1999.90;999.90;;;;;;;3.32;100.00;94484.81;4995631;28;20183;-60
2022/11/15 02:30:03;;;;;;;1999.90;999.90;;;;;;;3.24;100.00;94488.66;4996291;28;20179;-62
2022/11/15 02:32:47;;;;;;;1999.90;999.90;;;;;;;3.21;100.00;94484.00;4996370;28;20210;-61
2022/11/15 02:35:25;;;;;;;1999.90;999.90;;;;;;;3.18;100.00;94484.00;4996142;28;20191;-64
2022/11/15 02:38:25;;;;;;;1999.90;999.90;;;;;;;3.17;100.00;94488.63;4995443;28;20242;-64
2022/11/15 02:40:59;;;;;;;1999.90;999.90;;;;;;;3.17;100.00;94488.63;4995280;28;20262;-64
2022/11/15 02:43:56;;;;;;;1999.90;999.90;;;;;;;3.13;100.00;94490.53;4995348;28;20203;-64
2022/11/15 02:49:16;;;;;;;1999.90;999.90;;;;;;;3.08;100.00;94482.81;4996480;28;20175;-62
2022/11/15 02:51:44;;;;;;;1999.90;999.90;;;;;;;3.08;100.00;94474.72;4995582;28;20176;-64
2022/11/15 02:54:31;;;;;;;1999.90;999.90;;;;;;;3.06;100.00;94477.00;4995755;28;20176;-65
2022/11/15 02:57:02;;;;;;;1999.90;999.90;;;;;;;3.07;100.00;94485.88;4996002;28;20306;-65
2022/11/15 03:00:03;;;;;;;1999.90;999.90;;;;;;;3.06;100.00;94479.69;4995920;28;20176;-65
2022/11/15 03:02:50;;;;;;;1999.90;999.90;;;;;;;3.04;100.00;94473.94;4978743;28;20222;-65
2022/11/15 03:05:30;;;;;;;1999.90;999.90;;;;;;;3.01;100.00;94466.59;4995161;28;20241;-65
2022/11/15 03:08:28;;;;;;;1999.90;999.90;;;;;;;2.97;100.00;94468.50;4994981;28;20211;-63
2022/11/15 03:11:07;;;;;;;1999.90;999.90;;;;;;;2.92;100.00;94466.16;4995844;28;20179;-63
2022/11/15 03:14:03;;;;;;;1999.90;999.90;;;;;;;2.88;100.00;94465.34;4995545;28;20263;-63
2022/11/15 03:16:38;;;;;;;1999.90;999.90;;;;;;;2.82;100.00;94450.72;4994956;28;20203;-63
2022/11/15 03:19:28;;;;;;;1999.90;999.90;;;;;;;2.79;100.00;94451.44;4995675;28;20247;-63
2022/11/15 03:21:56;;;;;;;1999.90;999.90;;;;;;;2.81;100.00;94438.34;4995047;28;20238;-63
2022/11/15 03:24:25;;;;;;;1999.90;999.90;;;;;;;2.80;100.00;94438.72;4994409;28;20175;-63
2022/11/15 03:26:53;;;;;;;1999.90;999.90;;;;;;;2.80;100.00;94412.56;4995338;28;20176;-60
2022/11/15 03:29:24;;;;;;;1999.90;999.90;;;;;;;2.77;100.00;94405.22;4994754;28;20269;-61
2022/11/15 03:31:56;;;;;;;1999.90;999.90;;;;;;;2.76;100.00;94392.13;4994685;28;20182;-60
2022/11/15 03:34:40;;;;;;;1999.90;999.90;;;;;;;2.72;100.00;94386.72;4995660;28;20169;-60
2022/11/15 03:37:07;;;;;;;1999.90;999.90;;;;;;;2.75;100.00;94380.59;4994783;28;20542;-61
2022/11/15 03:39:33;;;;;;;1999.90;999.90;;;;;;;2.74;100.00;94368.25;4994663;28;20201;-60
2022/11/15 03:42:04;;;;;;;1999.90;999.90;;;;;;;2.72;100.00;94365.19;4994894;28;20312;-60
2022/11/15 03:44:54;;;;;;;1999.90;999.90;;;;;;;2.67;100.00;94349.38;4994930;28;20180;-70
2022/11/15 03:47:34;;;;;;;1999.90;999.90;;;;;;;2.58;100.00;94346.25;4995043;28;20176;-61
2022/11/15 03:50:09;;;;;;;1999.90;999.90;;;;;;;2.52;100.00;94342.34;4994747;28;20226;-62
2022/11/15 03:52:35;;;;;;;1999.90;999.90;;;;;;;2.54;100.00;94337.38;4994317;28;20195;-62
2022/11/15 03:55:02;;;;;;;1999.90;999.90;;;;;;;2.57;100.00;94327.75;4994491;28;20170;-62
2022/11/15 03:57:28;;;;;;;1999.90;999.90;;;;;;;2.62;100.00;94317.41;4994203;28;20254;-61
2022/11/15 03:59:53;;;;;;;1999.90;999.90;;;;;;;2.61;100.00;94309.69;4994381;28;20180;-63
2022/11/15 04:02:18;;;;;;;1999.90;999.90;;;;;;;2.61;100.00;94315.84;4994229;28;20213;-60
2022/11/15 04:04:44;;;;;;;1999.90;999.90;;;;;;;2.60;100.00;94308.94;4993973;28;20204;-60
2022/11/15 04:07:09;;;;;;;1999.90;999.90;;;;;;;2.61;100.00;94298.91;4994238;28;20186;-68
2022/11/15 04:10:01;;;;;;;1999.90;999.90;;;;;;;2.60;100.00;94295.47;4994728;28;20193;-69
2022/11/15 04:12:30;;;;;;;1999.90;999.90;;;;;;;2.63;100.00;94289.28;4994814;28;20187;-69
2022/11/15 04:15:09;;;;;;;1999.90;999.90;;;;;;;2.62;100.00;94282.38;4994700;28;20233;-69
2022/11/15 04:17:35;;;;;;;1999.90;999.90;;;;;;;2.67;100.00;94298.19;4993728;28;20259;-70
2022/11/15 04:25:36;;;;;;;1999.90;999.90;;;;;;;2.76;100.00;94295.88;4995308;28;20192;-61
2022/11/15 04:28:02;;;;;;;1999.90;999.90;;;;;;;2.77;100.00;94299.38;4993978;28;20183;-61
2022/11/15 04:30:27;;;;;;;1999.90;999.90;;;;;;;2.76;100.00;94316.66;4994016;28;20211;-61
2022/11/15 04:32:52;;;;;;;1999.90;999.90;;;;;;;2.74;100.00;94319.75;4994409;28;20243;-61
2022/11/15 04:35:18;;;;;;;1999.90;999.90;;;;;;;2.72;100.00;94322.06;4994203;28;20211;-62
2022/11/15 04:37:43;;;;;;;1999.90;999.90;;;;;;;2.69;100.00;94330.91;4994275;28;20205;-61
2022/11/15 04:40:09;;;;;;;1999.90;999.90;;;;;;;2.71;100.00;94342.09;4993521;28;20281;-61
2022/11/15 04:42:34;;;;;;;1999.90;999.90;;;;;;;2.71;100.00;94355.56;4994155;28;20314;-61
2022/11/15 04:44:59;;;;;;;1999.90;999.90;;;;;;;2.69;100.00;94365.94;4993630;28;20191;-62
2022/11/15 04:47:24;;;;;;;1999.90;999.90;;;;;;;2.70;100.00;94391.72;4993973;28;20192;-62
2022/11/15 04:49:50;;;;;;;1999.90;999.90;;;;;;;2.71;100.00;94395.19;4993988;28;20177;-61
2022/11/15 04:52:15;;;;;;;1999.90;999.90;;;;;;;2.72;100.00;94400.22;4993986;28;20191;-62
2022/11/15 04:54:41;;;;;;;1999.90;999.90;;;;;;;2.69;100.00;94409.03;4993918;28;20183;-62
2022/11/15 04:57:07;;;;;;;1999.90;999.90;;;;;;;2.69;100.00;94419.81;4994660;28;20204;-62
2022/11/15 04:59:32;;;;;;;1999.90;999.90;;;;;;;2.67;100.00;94434.81;4993795;28;20548;-60
2022/11/15 05:01:58;;;;;;;1999.90;999.90;;;;;;;2.63;100.00;94434.78;4993394;28;20239;-62
2022/11/15 05:04:23;;;;;;;1999.90;999.90;;;;;;;2.63;100.00;94434.03;4994505;28;20258;-62
2022/11/15 05:06:50;;;;;;;1999.90;999.90;;;;;;;2.63;100.00;94437.47;4997093;28;20230;-61
2022/11/15 05:09:17;;;;;;;1999.90;999.90;;;;;;;2.66;100.00;94430.59;4997800;28;20275;-62
2022/11/15 05:11:43;;;;;;;1999.90;999.90;;;;;;;2.63;100.00;94426.72;4997317;28;20198;-60
2022/11/15 05:14:09;;;;;;;1999.90;999.90;;;;;;;2.58;100.00;94435.16;4997749;28;20179;-61
2022/11/15 05:16:35;;;;;;;1999.90;999.90;;;;;;;2.55;100.00;94430.50;4997482;28;20208;-62
2022/11/15 05:19:00;;;;;;;1999.90;999.90;;;;;;;2.56;100.00;94431.28;4997079;28;20244;-65
2022/11/15 05:21:26;;;;;;;1999.90;999.90;;;;;;;2.55;100.00;94437.84;4996971;28;20247;-65
2022/11/15 05:23:51;;;;;;;1999.90;999.90;;;;;;;2.54;100.00;94439.75;4997641;28;20187;-64
2022/11/15 05:26:18;;;;;;;1999.90;999.90;;;;;;;2.51;100.00;94429.72;4997170;28;20183;-64
2022/11/15 05:28:44;;;;;;;1999.90;999.90;;;;;;;2.52;100.00;94422.41;4997038;28;20262;-63
2022/11/15 05:31:13;;;;;;;1999.90;999.90;;;;;;;2.49;100.00;94431.25;4996686;28;20182;-64
2022/11/15 05:33:40;;;;;;;1999.90;999.90;;;;;;;2.51;100.00;94418.94;4997429;28;20278;-60
2022/11/15 05:36:17;;;;;;;1999.90;999.90;;;;;;;2.53;100.00;94416.66;4997229;28;20187;-67
2022/11/15 05:38:44;;;;;;;1999.90;999.90;;;;;;;2.55;100.00;94419.72;4996772;28;20266;-63
2022/11/15 05:41:10;;;;;;;1999.90;999.90;;;;;;;2.55;100.00;94413.59;4997226;28;20271;-63
2022/11/15 05:43:39;;;;;;;1999.90;999.90;;;;;;;2.51;100.00;94423.56;4996755;28;20246;-64
2022/11/15 05:46:04;;;;;;;1999.90;999.90;;;;;;;2.47;100.00;94418.16;4996641;28;20207;-62
2022/11/15 05:48:30;;;;;;;1999.90;999.90;;;;;;;2.46;100.00;94408.53;4997012;28;20175;-62
2022/11/15 05:50:56;;;;;;;1999.90;999.90;;;;;;;2.49;100.00;94423.16;4996550;28;20187;-62
2022/11/15 05:53:23;;;;;;;1999.90;999.90;;;;;;;2.50;100.00;94428.19;4996557;28;20185;-61
2022/11/15 05:55:49;;;;;;;1999.90;999.90;;;;;;;2.51;100.00;94429.72;4996553;28;20184;-62
2022/11/15 05:58:14;;;;;;;1999.90;999.90;;;;;;;2.55;100.00;94430.50;4996639;28;20206;-62
2022/11/15 06:00:40;;;;;;;1999.90;999.90;;;;;;;2.56;100.00;94431.28;4996603;28;20187;-60
2022/11/15 06:03:05;;;;;;;1999.90;999.90;;;;;;;2.57;100.00;94433.63;4996524;28;20180;-62
2022/11/15 06:05:31;;;;;;;1999.90;999.90;;;;;;;2.54;100.00;94430.88;4996416;28;20218;-62
2022/11/15 06:07:59;;;;;;;1999.90;999.90;;;;;;;2.53;100.00;94437.44;4996247;28;20180;-61
2022/11/15 06:10:25;;;;;;;1999.90;999.90;;;;;;;2.50;100.00;94438.97;4996085;28;20182;-63
2022/11/15 06:13:01;;;;;;;1999.90;999.90;;;;;;;2.44;100.00;94435.06;4995892;28;20180;-59
2022/11/15 06:15:27;;;;;;;1999.90;999.90;;;;;;;2.46;100.00;94419.31;4995686;28;20262;-61
2022/11/15 06:17:52;;;;;;;1999.90;999.90;;;;;;;2.45;100.00;94425.06;4995075;28;20245;-61
2022/11/15 06:20:17;;;;;;;1999.90;999.90;;;;;;;2.50;100.00;94422.00;4995715;28;20172;-61
2022/11/15 06:22:43;;;;;;;1999.90;999.90;;;;;;;2.57;100.00;94422.84;4995808;28;20250;-61
2022/11/15 06:25:08;;;;;;;1999.90;999.90;;;;;;;2.65;100.00;94424.41;4995857;28;20261;-62
2022/11/15 06:27:34;;;;;;;1999.90;999.90;;;;;;;2.70;100.00;94426.75;4995774;28;20194;-61
2022/11/15 06:29:59;;;;;;;1999.90;999.90;;;;;;;2.76;100.00;94430.63;4995768;28;20190;-61
2022/11/15 06:32:24;;;;;;;1999.90;999.90;;;;;;;2.82;100.00;94433.75;4995199;28;20568;-61
2022/11/15 06:34:50;;;;;;;1999.90;999.90;;;;;;;2.95;100.00;94435.75;4995898;28;20184;-61
2022/11/15 06:37:15;;;;;;;1999.90;999.90;;;;;;;3.39;100.00;94440.94;4995236;28;20291;-62
2022/11/15 06:39:40;;;;;;;1999.90;999.90;;;;;;;4.02;100.00;94456.47;4995814;28;20212;-62
2022/11/15 06:42:08;;;;;;;1999.90;999.90;;;;;;;4.70;100.00;94502.06;4995755;28;20182;-63
2022/11/15 06:44:33;;;;;;;1999.90;999.90;;;;;;;5.26;100.00;94577.72;4996077;28;20176;-62
2022/11/15 06:46:59;;;;;;;1999.90;999.90;;;;;;;5.83;100.00;94671.28;4996230;28;20186;-62
2022/11/15 06:49:24;;;;;;;1999.90;999.90;;;;;;;6.71;100.00;94747.69;4995489;28;20180;-62
2022/11/15 06:51:49;;;;;;;1999.90;999.90;;;;;;;7.25;100.00;94820.28;4995093;28;20263;-65
2022/11/15 06:54:15;;;;;;;1999.90;999.90;;;;;;;7.91;100.00;94878.94;4995322;28;20210;-67
2022/11/15 06:56:40;;;;;;;1999.90;999.90;;;;;;;8.16;100.00;94919.53;4995990;28;20210;-67
2022/11/15 06:59:05;;;;;;;1999.90;999.90;;;;;;;8.79;100.00;94938.91;4994988;28;20234;-68
2022/11/15 07:01:30;;;;;;;1999.90;999.90;;;;;;;9.22;100.00;94950.91;4995698;28;20203;-67
2022/11/15 07:03:56;;;;;;;1999.90;999.90;;;;;;;9.52;100.00;94970.06;4995129;28;20226;-67
2022/11/15 07:06:21;;;;;;;1999.90;999.90;;;;;;;9.56;100.00;94978.97;4995636;28;20169;-63
2022/11/15 07:08:46;;;;;;;1999.90;999.90;;;;;;;9.75;100.00;94983.03;4996040;28;20175;-61
2022/11/15 07:11:12;;;;;;;1999.90;999.90;;;;;;;9.59;100.00;94975.41;4995063;28;20174;-67
2022/11/15 07:13:37;;;;;;;1999.90;999.90;;;;;;;9.90;100.00;94979.72;4994848;28;20199;-67
2022/11/15 07:16:08;;;;;;;1999.90;999.90;;;;;;;10.21;100.00;94977.81;4994720;28;20219;-68
2022/11/15 07:18:35;;;;;;;1999.90;999.90;;;;;;;11.13;100.00;94979.88;4995317;28;20213;-68
2022/11/15 07:21:02;;;;;;;1999.90;999.90;;;;;;;11.33;100.00;94986.19;4994968;28;20177;-68
2022/11/15 07:23:27;;;;;;;1999.90;999.90;;;;;;;11.09;100.00;94979.16;4994840;28;20185;-65
2022/11/15 07:25:53;;;;;;;1999.90;999.90;;;;;;;11.16;100.00;94981.78;4994813;28;20187;-65
2022/11/15 07:28:18;;;;;;;1999.90;999.90;;;;;;;11.49;100.00;94981.59;4994407;28;20183;-65
2022/11/15 07:30:43;;;;;;;1999.90;999.90;;;;;;;11.44;100.00;94986.75;4994709;28;20176;-66
2022/11/15 07:33:09;;;;;;;1999.90;999.90;;;;;;;11.90;100.00;94994.88;4995032;28;20176;-65
2022/11/15 07:35:34;;;;;;;1999.90;999.90;;;;;;;12.38;100.00;94989.56;4994936;28;20202;-65
2022/11/15 07:38:01;;;;;;;1999.90;999.90;;;;;;;12.57;100.00;94988.78;4994510;28;20219;-66
2022/11/15 07:40:29;;;;;;;1999.90;999.90;;;;;;;12.31;100.00;94987.00;4994231;28;20176;-66
2022/11/15 07:43:08;;;;;;;1999.90;999.90;;;;;;;12.20;100.00;94983.72;4994581;28;20172;-61
2022/11/15 07:45:34;;;;;;;1999.90;999.90;;;;;;;12.42;100.00;94982.06;4994398;28;20179;-68
2022/11/15 07:48:00;;;;;;;1999.90;999.90;;;;;;;12.73;100.00;94983.31;4994793;28;20172;-62
2022/11/15 07:50:26;;;;;;;1999.90;999.90;;;;;;;12.64;100.00;94980.41;4994043;28;20186;-62
2022/11/15 07:52:56;;;;;;;1999.90;999.90;;;;;;;12.79;100.00;94981.63;4994385;28;20251;-63
2022/11/15 07:55:27;;;;;;;1999.90;999.90;;;;;;;12.91;100.00;94976.22;4994246;28;20184;-63
2022/11/15 07:57:53;;;;;;;1999.90;999.90;;;;;;;12.87;100.00;94974.75;4994099;28;20199;-62
2022/11/15 08:00:19;;;;;;;1999.90;999.90;;;;;;;13.22;100.00;94968.44;4994272;28;20179;-64
2022/11/15 08:02:44;;;;;;;1999.90;999.90;;;;;;;13.36;100.00;94976.28;4994325;28;20176;-65
2022/11/15 08:05:10;;;;;;;1999.90;999.90;;;;;;;13.53;100.00;94980.56;4994614;28;20266;-65
2022/11/15 08:07:35;;;;;;;1999.90;999.90;;;;;;;13.43;100.00;94975.38;4993833;28;20179;-65
2022/11/15 08:10:01;;;;;;;1999.90;999.90;;;;;;;13.50;100.00;94975.94;4993791;28;20183;-65
2022/11/15 08:12:28;;;;;;;1999.90;999.90;;;;;;;12.99;100.00;94974.09;4994838;28;20179;-66
2022/11/15 08:14:55;;;;;;;1999.90;999.90;;;;;;;13.60;100.00;94963.91;4994047;28;20199;-64
2022/11/15 08:17:20;;;;;;;1999.90;999.90;;;;;;;12.86;100.00;94954.03;4993748;28;20369;-63
2022/11/15 08:19:46;;;;;;;1999.90;999.90;;;;;;;12.16;100.00;94958.38;4993890;28;20219;-66
2022/11/15 08:22:11;;;;;;;1999.90;999.90;;;;;;;12.78;100.00;94947.94;4994349;28;20182;-65
2022/11/15 08:24:36;;;;;;;1999.90;999.90;;;;;;;13.38;100.00;94943.75;4994475;28;20184;-61
2022/11/15 08:27:02;;;;;;;1999.90;999.90;;;;;;;13.12;100.00;94933.84;4994200;28;20624;-61
2022/11/15 08:29:27;;;;;;;1999.90;999.90;;;;;;;13.46;100.00;94923.13;4993946;28;20658;-62
2022/11/15 08:31:54;;;;;;;1999.90;999.90;;;;;;;13.85;100.00;94922.84;4994173;28;20180;-61
2022/11/15 08:34:20;;;;;;;1999.90;999.90;;;;;;;14.18;100.00;94905.00;4994374;28;20186;-63
2022/11/15 08:36:45;;;;;;;1999.90;999.90;;;;;;;13.94;100.00;94900.22;4994839;28;20212;-61
2022/11/15 08:39:12;;;;;;;1999.90;999.90;;;;;;;14.67;100.00;94911.72;4994313;28;20282;-61
2022/11/15 08:41:37;;;;;;;1999.90;999.90;;;;;;;14.16;100.00;94904.66;4997628;28;20180;-60
2022/11/15 08:44:03;;;;;;;1999.90;999.90;;;;;;;14.61;100.00;94910.75;4998226;28;20187;-60
2022/11/15 08:46:28;;;;;;;1999.90;999.90;;;;;;;14.87;100.00;94909.53;4997628;28;20204;-60
2022/11/15 08:48:54;;;;;;;1999.90;999.90;;;;;;;15.37;100.00;94901.16;4997754;28;20184;-61
2022/11/15 08:51:19;;;;;;;1999.90;999.90;;;;;;;15.56;100.00;94913.09;4997747;28;20176;-61
2022/11/15 08:53:44;;;;;;;1999.90;999.90;;;;;;;16.15;100.00;94899.13;4997224;28;20182;-60
2022/11/15 08:56:11;;;;;;;1999.90;999.90;;;;;;;16.57;100.00;94907.78;4997193;28;20271;-65
2022/11/15 08:58:37;;;;;;;1999.90;999.90;;;;;;;16.99;100.00;94906.84;4997127;28;20188;-61
2022/11/15 09:01:04;;;;;;;1999.90;999.90;;;;;;;17.26;100.00;94917.19;4997585;28;20207;-73
2022/11/15 09:03:29;;;;;;;1999.90;999.90;;;;;;;17.39;100.00;94912.28;4997249;28;20180;-73
2022/11/15 09:05:59;;;;;;;1999.90;999.90;;;;;;;17.61;98.77;94904.66;4997443;28;20203;-73
2022/11/15 09:08:29;;;;;;;1999.90;999.90;;;;;;;16.91;98.48;94910.34;4997825;28;20614;-72
2022/11/15 09:10:54;;;;;;;1999.90;999.90;;;;;;;16.62;97.52;94907.19;4997133;28;20176;-74
2022/11/15 09:13:20;;;;;;;1999.90;999.90;;;;;;;17.30;95.11;94904.00;4997809;28;20190;-71
2022/11/15 09:15:46;;;;;;;1999.90;999.90;;;;;;;18.02;89.86;94907.56;4998147;28;20329;-62
2022/11/15 09:18:11;;;;;;;1999.90;999.90;;;;;;;18.35;82.94;94911.19;4996966;28;20322;-62
2022/11/15 09:20:37;;;;;;;1999.90;999.90;;;;;;;18.12;83.31;94902.78;4997240;28;20187;-62
2022/11/15 09:23:03;;;;;;;1999.90;999.90;;;;;;;17.75;83.30;94890.22;4997023;28;20187;-61
2022/11/15 09:25:29;;;;;;;1999.90;999.90;;;;;;;17.67;82.80;94894.53;4997532;28;20194;-62
2022/11/15 09:27:58;;;;;;;1999.90;999.90;;;;;;;17.72;81.98;94896.69;4998075;28;20176;-63
2022/11/15 09:30:27;;;;;;;1999.90;999.90;;;;;;;17.50;82.94;94891.31;4997480;28;20183;-63
2022/11/15 09:32:53;;;;;;;1999.90;999.90;;;;;;;16.66;86.82;94888.50;4996838;28;20199;-61
2022/11/15 09:35:18;;;;;;;1999.90;999.90;;;;;;;15.85;93.91;94888.84;4997068;28;20208;-60
2022/11/15 09:37:43;;;;;;;1999.90;999.90;;;;;;;16.21;92.73;94886.31;4997564;28;20254;-72
2022/11/15 09:40:16;;;;;;;1999.90;999.90;;;;;;;16.75;90.82;94885.78;4996772;28;20176;-73
2022/11/15 09:43:08;;;;;;;1999.90;999.90;;;;;;;17.02;92.30;94877.56;4996587;28;20176;-68
2022/11/15 09:45:52;;;;;;;1999.90;999.90;;;;;;;16.95;93.29;94867.59;4997098;28;20172;-68
2022/11/15 09:48:43;;;;;;;1999.90;999.90;;;;;;;16.03;94.84;94870.44;4996926;28;20214;-69
2022/11/15 09:51:16;;;;;;;1999.90;999.90;;;;;;;15.54;99.25;94864.00;4995662;28;20173;-70
2022/11/15 09:54:08;;;;;;;1999.90;999.90;;;;;;;14.86;100.00;94852.22;4997127;28;20226;-60
2022/11/15 09:56:41;;;;;;;1999.90;999.90;;;;;;;14.24;100.00;94844.84;4961790;28;20208;-61
2022/11/15 09:59:37;;;;;;;1999.90;999.90;;;;;;;14.61;100.00;94839.28;4996241;28;20259;-62
2022/11/15 10:02:37;;;;;;;1999.90;999.90;;;;;;;14.96;100.00;94843.63;4996370;28;20180;-61
2022/11/15 10:05:02;;;;;;;1999.90;999.90;;;;;;;15.33;100.00;94836.41;4996329;28;20195;-62
2022/11/15 10:07:40;;;;;;;1999.90;999.90;;;;;;;15.70;100.00;94847.28;4996237;28;20176;-62
2022/11/15 10:10:11;;;;;;;1999.90;999.90;;;;;;;16.21;100.00;94840.22;4996732;28;20576;-62
2022/11/15 10:12:37;;;;;;;1999.90;999.90;;;;;;;16.09;99.32;94824.56;4996245;28;20221;-62
2022/11/15 10:15:13;;;;;;;1999.90;999.90;;;;;;;16.29;95.37;94827.69;4996610;28;20210;-62
2022/11/15 10:18:16;;;;;;;1999.90;999.90;;;;;;;15.89;97.79;94826.88;4995963;28;20235;-61
2022/11/15 10:20:55;;;;;;;1999.90;999.90;;;;;;;16.16;97.38;94824.28;4996249;28;20190;-61
2022/11/15 10:23:22;;;;;;;1999.90;999.90;;;;;;;16.21;97.29;94814.66;4995935;28;20195;-60
2022/11/15 10:25:52;;;;;;;1999.90;999.90;;;;;;;15.83;99.91;94816.91;4995987;28;20176;-60
2022/11/15 10:28:37;;;;;;;1999.90;999.90;;;;;;;15.62;100.00;94807.47;4995967;28;20184;-61
2022/11/15 10:31:20;;;;;;;1999.90;999.90;;;;;;;15.49;100.00;94803.25;4995260;28;20184;-62
2022/11/15 10:33:45;;;;;;;1999.90;999.90;;;;;;;15.19;100.00;94801.19;4995651;28;20175;-60
2022/11/15 10:36:24;;;;;;;1999.90;999.90;;;;;;;14.94;100.00;94802.03;4995919;28;20267;-60
2022/11/15 10:38:50;;;;;;;1999.90;999.90;;;;;;;15.05;100.00;94796.94;4995625;28;20191;-59
2022/11/15 10:41:21;;;;;;;1999.90;999.90;;;;;;;14.82;100.00;94794.59;4995278;28;20180;-60
2022/11/15 10:44:05;;;;;;;1999.90;999.90;;;;;;;14.39;100.00;94788.97;4995243;28;20191;-60
2022/11/15 10:46:30;;;;;;;1999.90;999.90;;;;;;;14.29;100.00;94779.13;4995401;28;20646;-65
2022/11/15 10:49:12;;;;;;;1999.90;999.90;;;;;;;13.87;100.00;94774.94;4996114;28;20191;-61
2022/11/15 10:51:44;;;;;;;1999.90;999.90;;;;;;;13.61;100.00;94773.38;4995157;28;20184;-61
2022/11/15 10:54:13;;;;;;;1999.90;999.90;;;;;;;13.52;100.00;94765.03;4995933;28;20170;-61
2022/11/15 10:56:40;;;;;;;1999.90;999.90;;;;;;;13.50;100.00;94761.97;4995471;28;20622;-60
2022/11/15 10:59:14;;;;;;;1999.90;999.90;;;;;;;13.51;100.00;94763.50;4995330;28;20181;-61
2022/11/15 11:01:46;;;;;;;1999.90;999.90;;;;;;;13.43;100.00;94756.69;4994620;28;20182;-61
2022/11/15 11:04:12;;;;;;;1999.90;999.90;;;;;;;13.29;100.00;94755.13;4995542;28;20259;-61
2022/11/15 11:06:55;;;;;;;1999.90;999.90;;;;;;;13.32;100.00;94745.25;4996147;28;20226;-61
2022/11/15 11:09:34;;;;;;;1999.90;999.90;;;;;;;13.30;100.00;94742.94;4995554;28;20182;-61
2022/11/15 11:12:01;;;;;;;1999.90;999.90;;;;;;;13.17;100.00;94755.09;4995595;28;20174;-60